Time;durP1;ratioP1;P1;durP2;ratioP2;P2;SDS_P1;SDS_P2;PMS_P1;PMS_P2;Temp;Humidity;BMP_temperature;BMP_pressure;BME280_temperature;BME280_humidity;BME280_pressure;Samples;Min_cycle;Max_cycle;Signal;HPM_P1;HPM_P2
2021/12/28 00:00:31;;;;;;;8.07;1.75;;;21.60;98.50;;;;;;5055174;28;20122;-67
2021/12/28 00:02:58;;;;;;;4.20;0.80;;;21.60;99.50;;;;;;5052484;28;20108;-67
2021/12/28 00:05:26;;;;;;;6.50;1.00;;;21.50;98.30;;;;;;5053686;28;20129;-68
2021/12/28 00:07:54;;;;;;;4.45;1.40;;;21.30;98.80;;;;;;5054134;28;20030;-65
2021/12/28 00:10:21;;;;;;;3.35;1.35;;;21.00;99.30;;;;;;5053296;28;20214;-67
2021/12/28 00:12:49;;;;;;;3.72;0.88;;;21.00;99.30;;;;;;5053987;28;20106;-68
2021/12/28 00:18:04;;;;;;;5.45;1.20;;;21.00;99.80;;;;;;5053733;28;20025;-66
2021/12/28 00:20:40;;;;;;;3.20;1.10;;;21.20;99.90;;;;;;5051935;28;20039;-69
2021/12/28 00:23:19;;;;;;;4.63;1.10;;;21.00;99.40;;;;;;5053312;28;20013;-66
2021/12/28 00:25:48;;;;;;;5.15;1.10;;;20.80;99.90;;;;;;5053165;28;20431;-69
2021/12/28 00:28:16;;;;;;;3.35;1.00;;;20.60;99.90;;;;;;5053369;28;20033;-67
2021/12/28 00:30:44;;;;;;;9.00;1.50;;;20.90;99.90;;;;;;5053935;28;20114;-67
2021/12/28 00:33:11;;;;;;;5.28;1.00;;;20.90;99.90;;;;;;5052796;28;20035;-68
2021/12/28 00:35:40;;;;;;;3.35;0.95;;;20.90;99.80;;;;;;5053691;28;20039;-67
2021/12/28 00:38:10;;;;;;;4.68;1.25;;;21.10;99.70;;;;;;5051757;28;20032;-66
2021/12/28 00:40:38;;;;;;;3.58;1.40;;;21.30;99.90;;;;;;5054008;28;20193;-68
2021/12/28 00:43:05;;;;;;;5.03;1.23;;;21.60;99.90;;;;;;5054060;28;20028;-66
2021/12/28 00:45:33;;;;;;;3.38;0.90;;;21.70;98.90;;;;;;5051870;28;20147;-66
2021/12/28 00:48:00;;;;;;;5.03;1.77;;;21.90;98.00;;;;;;5053868;28;20073;-67
2021/12/28 00:50:28;;;;;;;6.25;1.30;;;21.80;98.60;;;;;;5053969;28;20544;-70
2021/12/28 00:52:56;;;;;;;4.97;1.25;;;22.10;97.70;;;;;;5053369;28;20111;-67
2021/12/28 00:55:24;;;;;;;4.40;1.15;;;22.10;97.70;;;;;;5052344;28;20033;-66
2021/12/28 00:57:52;;;;;;;4.57;1.13;;;22.10;98.60;;;;;;5052992;28;20025;-67
2021/12/28 01:00:25;;;;;;;5.97;1.15;;;22.30;98.10;;;;;;5053014;28;20075;-71
2021/12/28 01:02:53;;;;;;;2.50;0.95;;;22.60;97.40;;;;;;5052640;28;20029;-67
2021/12/28 01:05:21;;;;;;;5.95;0.88;;;22.70;97.00;;;;;;5052820;28;20074;-68
2021/12/28 01:07:48;;;;;;;2.88;1.20;;;22.70;96.90;;;;;;5052376;28;20040;-67
2021/12/28 01:10:20;;;;;;;2.80;1.02;;;22.70;96.50;;;;;;5052256;28;20153;-71
2021/12/28 01:12:49;;;;;;;4.63;1.20;;;22.60;96.70;;;;;;5052925;28;20112;-72
2021/12/28 01:15:17;;;;;;;4.43;1.40;;;22.50;96.50;;;;;;5052461;28;20330;-70
2021/12/28 01:17:44;;;;;;;2.45;1.13;;;22.30;97.00;;;;;;5053452;28;20025;-71
2021/12/28 01:20:13;;;;;;;3.97;1.10;;;22.20;97.50;;;;;;5050325;28;20052;-67
2021/12/28 01:22:41;;;;;;;7.20;1.38;;;22.20;97.30;;;;;;5051890;28;20028;-70
2021/12/28 01:25:09;;;;;;;4.93;1.20;;;22.20;97.90;;;;;;5052091;28;20039;-70
2021/12/28 01:27:36;;;;;;;4.82;1.35;;;22.20;97.50;;;;;;5052651;28;20032;-67
2021/12/28 01:30:06;;;;;;;7.70;1.77;;;21.90;97.20;;;;;;5052425;28;20024;-71
2021/12/28 01:32:34;;;;;;;5.78;1.20;;;21.80;98.80;;;;;;5053495;28;20358;-67
2021/12/28 01:35:02;;;;;;;2.95;0.90;;;21.70;98.10;;;;;;5051283;28;20067;-66
2021/12/28 01:37:29;;;;;;;3.38;1.40;;;21.60;98.90;;;;;;5052173;28;20028;-71
2021/12/28 01:39:56;;;;;;;4.82;1.33;;;21.60;98.00;;;;;;5074031;28;20044;-72
2021/12/28 01:42:25;;;;;;;5.30;1.00;;;21.50;98.50;;;;;;5052669;28;20023;-73
2021/12/28 01:44:52;;;;;;;4.57;0.93;;;21.60;98.50;;;;;;5052701;28;20196;-74
2021/12/28 01:47:19;;;;;;;3.78;1.27;;;21.80;98.90;;;;;;5052548;28;20040;-72
2021/12/28 01:49:46;;;;;;;3.78;1.17;;;22.00;97.90;;;;;;5052783;28;20438;-74
2021/12/28 01:52:13;;;;;;;3.85;1.30;;;22.20;97.50;;;;;;5052080;28;20120;-72
2021/12/28 01:54:42;;;;;;;3.83;1.17;;;22.50;97.40;;;;;;5052188;28;20037;-73
2021/12/28 01:57:09;;;;;;;5.75;0.90;;;22.70;96.00;;;;;;5053489;28;20029;-71
2021/12/28 01:59:36;;;;;;;4.70;1.08;;;22.90;96.40;;;;;;5076367;28;20029;-73
2021/12/28 02:02:03;;;;;;;5.75;1.20;;;23.10;96.20;;;;;;5051995;28;20495;-73
2021/12/28 02:04:30;;;;;;;4.57;1.23;;;22.90;96.10;;;;;;5053247;28;20036;-73
2021/12/28 02:06:58;;;;;;;4.80;0.80;;;22.90;94.70;;;;;;5051772;28;20056;-67
2021/12/28 02:09:25;;;;;;;2.92;1.02;;;22.80;95.80;;;;;;5051910;28;20127;-73
2021/12/28 02:11:53;;;;;;;4.57;1.00;;;22.80;95.30;;;;;;5053497;28;20112;-68
2021/12/28 02:14:21;;;;;;;3.97;1.17;;;22.80;95.70;;;;;;5053842;28;20055;-73
2021/12/28 02:16:49;;;;;;;3.65;0.98;;;22.80;96.10;;;;;;5056143;28;20043;-69
2021/12/28 02:19:18;;;;;;;4.47;1.10;;;22.90;96.50;;;;;;5054336;28;20029;-73
2021/12/28 02:21:45;;;;;;;4.90;1.33;;;23.00;95.20;;;;;;5055722;28;20025;-72
2021/12/28 02:24:12;;;;;;;4.53;1.10;;;23.00;95.40;;;;;;5056384;28;20028;-72
2021/12/28 02:26:39;;;;;;;3.70;1.35;;;23.20;96.20;;;;;;5055889;28;20391;-69
2021/12/28 02:29:07;;;;;;;4.45;1.00;;;23.60;95.80;;;;;;5056405;28;20032;-69
2021/12/28 02:31:34;;;;;;;5.35;1.38;;;23.60;93.80;;;;;;5056458;28;20437;-68
2021/12/28 02:34:04;;;;;;;4.57;1.23;;;23.10;95.40;;;;;;5056245;28;21262;-74
2021/12/28 02:36:32;;;;;;;4.03;0.80;;;23.40;95.00;;;;;;5055215;28;20032;-69
2021/12/28 02:39:00;;;;;;;5.40;1.35;;;23.50;94.70;;;;;;5056842;28;20056;-70
2021/12/28 02:41:29;;;;;;;6.95;1.25;;;23.50;95.00;;;;;;5078881;28;20143;-72
2021/12/28 02:44:03;;;;;;;3.35;1.30;;;23.50;95.00;;;;;;5054882;28;20029;-70
2021/12/28 02:46:30;;;;;;;2.80;1.15;;;23.30;95.20;;;;;;5053815;28;20057;-71
2021/12/28 02:48:57;;;;;;;3.22;1.02;;;23.30;94.10;;;;;;5078142;28;20115;-70
2021/12/28 02:51:24;;;;;;;3.50;1.02;;;23.40;94.60;;;;;;5055055;28;20029;-75
2021/12/28 02:53:51;;;;;;;7.40;1.27;;;23.60;95.00;;;;;;5055908;28;20044;-70
2021/12/28 02:56:20;;;;;;;5.03;1.30;;;23.50;94.20;;;;;;5056116;28;20037;-75
2021/12/28 02:58:51;;;;;;;4.88;1.38;;;23.50;95.00;;;;;;5054417;28;20083;-74
2021/12/28 03:01:23;;;;;;;3.00;0.80;;;23.70;94.00;;;;;;5054358;28;20021;-70
2021/12/28 03:03:58;;;;;;;2.92;0.68;;;23.80;94.10;;;;;;5077465;28;20039;-68
2021/12/28 03:06:25;;;;;;;2.70;1.10;;;23.80;94.30;;;;;;5054155;28;20118;-72
2021/12/28 03:08:55;;;;;;;2.92;0.90;;;24.00;93.90;;;;;;5054445;28;20393;-70
2021/12/28 03:11:25;;;;;;;4.78;0.88;;;24.10;93.80;;;;;;5055319;28;20032;-69
2021/12/28 03:13:54;;;;;;;3.95;0.70;;;24.00;93.40;;;;;;5056983;28;20025;-69
2021/12/28 03:16:24;;;;;;;4.97;0.80;;;23.90;93.00;;;;;;5056723;28;20025;-68
2021/12/28 03:18:52;;;;;;;4.43;1.00;;;23.70;94.20;;;;;;5052575;28;20428;-73
2021/12/28 03:21:20;;;;;;;4.43;0.98;;;23.50;93.50;;;;;;5055232;28;20032;-69
2021/12/28 03:23:48;;;;;;;2.25;0.98;;;23.30;93.70;;;;;;5055148;28;20395;-70
2021/12/28 03:26:16;;;;;;;3.42;0.82;;;23.30;93.60;;;;;;5054078;28;20112;-70
2021/12/28 03:28:44;;;;;;;2.35;1.10;;;23.30;93.60;;;;;;5055474;28;20038;-72
2021/12/28 03:31:15;;;;;;;3.42;0.90;;;23.60;92.90;;;;;;5055141;28;20028;-69
2021/12/28 03:33:45;;;;;;;2.90;0.82;;;23.90;92.20;;;;;;5054720;28;20044;-71
2021/12/28 03:36:14;;;;;;;4.40;1.23;;;24.10;92.80;;;;;;5054236;28;20090;-70
2021/12/28 03:38:43;;;;;;;4.22;1.00;;;24.50;91.90;;;;;;5054674;28;20035;-71
2021/12/28 03:41:11;;;;;;;1.90;0.73;;;24.40;92.00;;;;;;5054342;28;20422;-72
2021/12/28 03:43:41;;;;;;;7.20;1.13;;;24.60;91.90;;;;;;5079710;28;20090;-72
2021/12/28 03:46:09;;;;;;;5.13;1.30;;;24.40;91.00;;;;;;5054125;28;20048;-72
2021/12/28 03:48:37;;;;;;;4.40;1.30;;;24.40;91.00;;;;;;5055117;28;20444;-70
2021/12/28 03:51:06;;;;;;;4.55;1.30;;;24.60;91.00;;;;;;5077111;28;20366;-70
2021/12/28 03:53:34;;;;;;;5.57;1.60;;;25.00;90.40;;;;;;5055444;28;20310;-71
2021/12/28 03:56:03;;;;;;;3.95;1.23;;;24.90;90.30;;;;;;5054081;28;20033;-70
2021/12/28 03:58:30;;;;;;;5.03;0.93;;;25.00;90.40;;;;;;5053719;28;20421;-70
2021/12/28 04:00:57;;;;;;;7.35;1.13;;;24.40;89.10;;;;;;5055018;28;20027;-71
2021/12/28 04:03:24;;;;;;;3.08;0.95;;;24.20;91.40;;;;;;5054624;28;20017;-71
2021/12/28 04:05:51;;;;;;;5.35;1.02;;;24.00;91.10;;;;;;5052612;28;20032;-71
2021/12/28 04:08:22;;;;;;;5.38;1.23;;;23.90;92.10;;;;;;5053103;28;20422;-72
2021/12/28 04:11:02;;;;;;;3.97;1.00;;;23.80;91.90;;;;;;5054387;28;20029;-72
2021/12/28 04:13:29;;;;;;;4.80;1.10;;;23.50;91.80;;;;;;5054376;28;20025;-70
2021/12/28 04:15:56;;;;;;;4.47;1.10;;;23.30;92.40;;;;;;5053184;28;20029;-71
2021/12/28 04:18:23;;;;;;;5.55;1.38;;;23.10;91.90;;;;;;5075935;28;20226;-73
2021/12/28 04:20:50;;;;;;;3.60;1.15;;;22.90;92.70;;;;;;5053343;28;20028;-72
2021/12/28 04:23:17;;;;;;;3.53;1.25;;;23.10;93.00;;;;;;5036143;28;20036;-73
2021/12/28 04:25:45;;;;;;;3.83;1.40;;;23.30;92.70;;;;;;5077261;28;20036;-73
2021/12/28 04:28:12;;;;;;;4.15;1.30;;;23.20;92.60;;;;;;5054314;28;20025;-73
2021/12/28 04:30:39;;;;;;;6.32;1.13;;;23.30;94.70;;;;;;5053198;28;20033;-73
2021/12/28 04:33:06;;;;;;;4.80;1.30;;;23.50;96.30;;;;;;5053274;28;20044;-73
2021/12/28 04:35:33;;;;;;;6.35;1.55;;;23.40;95.50;;;;;;5052444;28;20038;-71
2021/12/28 04:38:01;;;;;;;3.88;0.70;;;23.30;95.40;;;;;;5053944;28;20050;-74
2021/12/28 04:40:28;;;;;;;4.85;0.93;;;23.30;94.10;;;;;;5054188;28;20028;-73
2021/12/28 04:42:56;;;;;;;6.63;1.45;;;23.20;93.50;;;;;;5052106;28;20027;-72
2021/12/28 04:45:23;;;;;;;3.15;1.00;;;23.10;93.60;;;;;;5051676;28;20507;-74
2021/12/28 04:47:50;;;;;;;3.38;1.08;;;23.20;93.90;;;;;;5052794;28;20051;-73
2021/12/28 04:50:17;;;;;;;5.30;0.90;;;23.10;92.90;;;;;;5051478;28;20466;-73
2021/12/28 04:52:45;;;;;;;2.15;1.08;;;23.10;92.80;;;;;;5050557;28;20037;-71
2021/12/28 04:55:15;;;;;;;3.47;0.70;;;22.80;93.70;;;;;;5049616;28;20117;-72
2021/12/28 04:57:43;;;;;;;4.45;0.88;;;22.60;94.30;;;;;;5051958;28;20025;-73
2021/12/28 05:00:15;;;;;;;4.75;1.02;;;22.60;94.30;;;;;;5053056;28;20165;-74
2021/12/28 05:02:42;;;;;;;3.47;0.90;;;22.70;93.40;;;;;;5051644;28;20227;-72
2021/12/28 05:05:10;;;;;;;4.57;1.00;;;22.50;93.30;;;;;;5049314;28;20074;-74
2021/12/28 05:07:37;;;;;;;5.65;1.27;;;22.40;93.60;;;;;;5050592;28;20029;-74
2021/12/28 05:10:05;;;;;;;4.35;1.00;;;22.60;93.70;;;;;;5045373;28;20543;-76
2021/12/28 05:12:32;;;;;;;3.22;1.02;;;22.60;93.80;;;;;;5050067;28;20091;-74
2021/12/28 05:14:59;;;;;;;3.13;0.63;;;22.90;93.90;;;;;;5050664;28;20331;-71
2021/12/28 05:17:27;;;;;;;5.97;1.45;;;23.00;91.70;;;;;;5046290;28;20067;-71
2021/12/28 05:19:54;;;;;;;6.07;1.60;;;22.90;92.60;;;;;;5043734;28;20470;-74
2021/12/28 05:22:22;;;;;;;4.03;1.00;;;23.00;92.90;;;;;;5049087;28;20064;-72
2021/12/28 05:24:50;;;;;;;3.88;1.05;;;23.40;92.20;;;;;;5049350;28;20396;-73
2021/12/28 05:27:17;;;;;;;4.03;1.20;;;23.70;92.30;;;;;;5051178;28;20017;-76
2021/12/28 05:29:44;;;;;;;3.72;1.02;;;24.10;91.70;;;;;;5051780;28;20083;-75
2021/12/28 05:32:11;;;;;;;5.60;1.02;;;24.30;92.70;;;;;;5050690;28;20025;-75
2021/12/28 05:34:39;;;;;;;6.07;2.33;;;24.30;91.00;;;;;;5048640;28;20061;-74
2021/12/28 05:37:06;;;;;;;2.60;1.20;;;23.90;91.70;;;;;;5050621;28;20029;-76
2021/12/28 05:39:33;;;;;;;6.50;1.55;;;23.60;91.20;;;;;;5048926;28;20498;-76
2021/12/28 05:42:00;;;;;;;3.55;1.40;;;23.60;91.20;;;;;;5050652;28;20114;-74
2021/12/28 05:44:27;;;;;;;5.57;1.20;;;23.50;91.70;;;;;;5095510;22;20044;-75
2021/12/28 05:46:55;;;;;;;4.78;1.33;;;23.40;92.30;;;;;;5033595;28;20021;-73
2021/12/28 05:49:26;;;;;;;4.10;0.95;;;23.60;91.40;;;;;;5031187;28;20021;-74
2021/12/28 05:51:53;;;;;;;3.97;1.10;;;23.30;91.80;;;;;;5037533;28;20033;-73
2021/12/28 05:54:20;;;;;;;5.20;2.03;;;23.10;92.80;;;;;;5038432;28;20112;-76
2021/12/28 05:56:47;;;;;;;4.18;1.20;;;23.00;92.30;;;;;;5038929;28;20047;-74
2021/12/28 05:59:14;;;;;;;1.42;0.57;;;23.00;93.00;;;;;;5036534;28;20055;-73
2021/12/28 06:01:41;;;;;;;5.72;1.42;;;22.90;93.20;;;;;;5038209;28;20021;-74
2021/12/28 06:04:08;;;;;;;3.97;0.80;;;22.80;93.30;;;;;;5037843;28;20035;-75
2021/12/28 06:06:36;;;;;;;4.20;0.93;;;22.70;93.80;;;;;;5038984;28;20022;-73
2021/12/28 06:09:04;;;;;;;5.25;1.25;;;22.60;93.40;;;;;;5038072;28;20025;-75
2021/12/28 06:11:31;;;;;;;3.20;1.00;;;22.30;93.70;;;;;;5037945;28;20430;-72
2021/12/28 06:13:58;;;;;;;6.88;1.05;;;22.00;94.60;;;;;;5038167;28;20021;-75
2021/12/28 06:16:25;;;;;;;3.63;0.80;;;22.00;95.20;;;;;;5040518;28;20589;-75
2021/12/28 06:18:52;;;;;;;2.25;1.10;;;22.00;95.00;;;;;;5039925;28;20016;-73
2021/12/28 06:21:19;;;;;;;7.10;1.15;;;21.90;94.90;;;;;;5035628;28;20439;-73
2021/12/28 06:23:46;;;;;;;5.10;1.50;;;21.90;95.60;;;;;;5035380;28;20032;-76
2021/12/28 06:26:13;;;;;;;2.97;1.33;;;21.90;95.20;;;;;;5040915;28;20108;-76
2021/12/28 06:28:40;;;;;;;7.75;1.58;;;21.80;95.80;;;;;;5034269;28;20025;-75
2021/12/28 06:31:07;;;;;;;7.47;2.03;;;21.60;96.10;;;;;;5044730;28;20475;-76
2021/12/28 06:33:34;;;;;;;6.15;1.40;;;21.20;96.50;;;;;;5040619;28;20036;-73
2021/12/28 06:36:03;;;;;;;5.65;1.25;;;21.10;97.30;;;;;;5037220;28;20029;-74
2021/12/28 06:38:30;;;;;;;4.07;1.10;;;20.90;97.30;;;;;;5042423;28;20116;-74
2021/12/28 06:40:57;;;;;;;5.53;1.17;;;20.80;98.20;;;;;;5043188;28;20013;-72
2021/12/28 06:43:24;;;;;;;4.45;1.00;;;20.70;97.90;;;;;;5038792;28;20021;-74
2021/12/28 06:45:54;;;;;;;3.33;1.00;;;20.70;98.10;;;;;;5039744;28;20123;-71
2021/12/28 06:48:22;;;;;;;4.47;1.15;;;20.60;99.10;;;;;;5039751;28;20082;-71
2021/12/28 06:50:49;;;;;;;2.92;1.38;;;20.60;99.10;;;;;;5039840;28;20029;-75
2021/12/28 06:53:17;;;;;;;3.90;1.02;;;20.60;98.40;;;;;;5042276;28;20032;-74
2021/12/28 06:55:44;;;;;;;5.43;0.90;;;20.50;98.40;;;;;;5040431;28;20033;-72
2021/12/28 06:58:11;;;;;;;4.65;0.98;;;20.90;97.90;;;;;;5036194;28;20083;-71
2021/12/28 07:00:39;;;;;;;3.72;1.20;;;22.10;96.30;;;;;;5037187;28;20025;-71
2021/12/28 07:03:07;;;;;;;5.18;1.00;;;23.60;93.70;;;;;;5037397;28;20026;-74
2021/12/28 07:05:34;;;;;;;5.55;1.08;;;24.50;92.00;;;;;;5035548;28;20025;-72
2021/12/28 07:08:02;;;;;;;3.25;1.15;;;25.20;90.00;;;;;;5033565;28;20613;-72
2021/12/28 07:10:29;;;;;;;4.80;1.15;;;25.60;88.30;;;;;;5035561;28;20040;-73
2021/12/28 07:12:56;;;;;;;3.53;1.10;;;25.70;86.60;;;;;;5035106;28;20047;-75
2021/12/28 07:15:24;;;;;;;1.73;0.75;;;26.40;83.10;;;;;;5027179;28;20038;-76
2021/12/28 07:17:51;;;;;;;7.20;1.50;;;26.20;82.70;;;;;;5057705;28;20060;-75
2021/12/28 07:20:19;;;;;;;3.65;0.90;;;26.20;83.40;;;;;;5036593;28;20021;-74
2021/12/28 07:22:46;;;;;;;6.10;1.35;;;25.40;83.60;;;;;;5034937;28;20088;-75
2021/12/28 07:25:13;;;;;;;3.03;0.70;;;24.50;86.20;;;;;;5036449;28;20059;-73
2021/12/28 07:27:40;;;;;;;3.42;1.13;;;24.20;88.40;;;;;;5035881;28;20105;-70
2021/12/28 07:30:10;;;;;;;5.13;1.27;;;24.30;89.10;;;;;;5034648;28;20048;-74
2021/12/28 07:32:38;;;;;;;2.95;1.38;;;23.90;89.10;;;;;;5035403;28;20041;-73
2021/12/28 07:35:06;;;;;;;3.60;0.82;;;24.30;88.20;;;;;;5036004;28;20068;-76
2021/12/28 07:37:33;;;;;;;4.22;0.90;;;24.20;88.20;;;;;;5036348;28;20025;-75
2021/12/28 07:40:00;;;;;;;4.55;0.73;;;24.40;87.00;;;;;;5036779;28;20028;-71
2021/12/28 07:42:27;;;;;;;3.35;1.10;;;24.80;87.60;;;;;;5036432;28;20029;-71
2021/12/28 07:44:54;;;;;;;5.10;1.08;;;25.60;83.00;;;;;;5036000;28;20762;-72
2021/12/28 07:47:21;;;;;;;4.18;1.23;;;25.80;83.80;;;;;;5035179;28;20499;-72
2021/12/28 07:49:48;;;;;;;6.50;1.30;;;25.60;83.10;;;;;;5035681;28;20028;-73
2021/12/28 07:52:15;;;;;;;5.18;1.20;;;25.60;81.70;;;;;;5035884;28;20061;-73
2021/12/28 07:54:42;;;;;;;4.30;1.30;;;25.80;83.10;;;;;;5035514;28;20443;-72
2021/12/28 07:57:09;;;;;;;2.03;0.82;;;26.30;80.40;;;;;;5035486;28;20032;-72
2021/12/28 07:59:36;;;;;;;5.20;1.17;;;26.40;79.80;;;;;;5033836;28;20029;-73
2021/12/28 08:02:04;;;;;;;5.65;1.13;;;26.50;80.60;;;;;;5035264;28;20481;-73
2021/12/28 08:04:31;;;;;;;5.35;1.15;;;26.80;79.40;;;;;;5036631;28;20039;-73
2021/12/28 08:06:58;;;;;;;3.28;0.85;;;26.10;80.30;;;;;;5037072;28;20025;-70
2021/12/28 08:09:25;;;;;;;4.72;1.33;;;25.70;80.50;;;;;;5035742;28;20047;-70
2021/12/28 08:11:52;;;;;;;4.85;0.95;;;25.50;81.10;;;;;;5035850;28;20029;-72
2021/12/28 08:14:19;;;;;;;5.88;1.40;;;24.80;82.80;;;;;;5035631;28;20095;-71
2021/12/28 08:16:48;;;;;;;5.43;1.33;;;24.00;85.30;;;;;;5035580;28;20021;-72
2021/12/28 08:19:15;;;;;;;3.92;0.80;;;23.50;88.50;;;;;;5038043;28;20035;-71
2021/12/28 08:21:42;;;;;;;3.17;1.27;;;23.10;89.50;;;;;;5039111;28;20053;-71
2021/12/28 08:24:09;;;;;;;5.18;1.33;;;23.00;90.50;;;;;;5038576;28;20029;-74
2021/12/28 08:26:38;;;;;;;4.65;1.35;;;23.20;90.30;;;;;;5040657;28;20041;-74
2021/12/28 08:29:05;;;;;;;4.70;1.60;;;22.90;90.80;;;;;;5039748;28;20034;-72
2021/12/28 08:31:34;;;;;;;6.80;1.48;;;22.40;91.70;;;;;;5038461;28;20122;-72
2021/12/28 08:34:02;;;;;;;2.55;0.88;;;21.60;93.00;;;;;;5039826;28;20025;-69
2021/12/28 08:36:30;;;;;;;4.90;1.35;;;21.10;94.30;;;;;;5037135;28;20029;-72
2021/12/28 08:38:57;;;;;;;5.13;2.03;;;20.80;95.60;;;;;;5039105;28;20027;-71
2021/12/28 08:41:24;;;;;;;7.45;1.25;;;20.60;96.90;;;;;;5040469;28;20029;-71
2021/12/28 08:43:51;;;;;;;4.80;1.10;;;20.60;96.40;;;;;;5042839;28;20060;-71
2021/12/28 08:46:18;;;;;;;6.45;1.60;;;20.30;97.40;;;;;;5039306;28;20402;-70
2021/12/28 08:48:45;;;;;;;4.13;1.00;;;20.00;98.30;;;;;;5037473;28;20695;-73
2021/12/28 08:51:12;;;;;;;6.13;0.90;;;19.90;98.70;;;;;;5041842;28;20049;-71
2021/12/28 08:53:39;;;;;;;5.80;1.38;;;19.80;99.00;;;;;;5038780;28;20113;-73
2021/12/28 08:56:06;;;;;;;4.15;1.00;;;19.60;99.30;;;;;;5037202;28;20026;-71
2021/12/28 08:58:34;;;;;;;5.55;1.50;;;19.40;99.90;;;;;;5036259;28;20037;-66
2021/12/28 09:01:01;;;;;;;5.68;1.10;;;19.30;99.90;;;;;;5040627;28;20025;-64
2021/12/28 09:03:28;;;;;;;3.70;0.82;;;19.20;99.90;;;;;;5035952;28;20027;-65
2021/12/28 09:05:55;;;;;;;3.88;1.20;;;19.10;99.90;;;;;;5040795;28;20033;-65
2021/12/28 09:08:22;;;;;;;3.17;1.17;;;19.00;99.90;;;;;;5038088;28;20030;-63
2021/12/28 09:10:49;;;;;;;5.20;1.40;;;18.90;99.90;;;;;;5037497;28;20025;-71
2021/12/28 09:13:18;;;;;;;3.55;1.08;;;18.80;99.90;;;;;;5038367;28;20545;-66
2021/12/28 09:15:45;;;;;;;3.67;1.20;;;18.70;99.90;;;;;;5034150;28;20029;-67
2021/12/28 09:18:12;;;;;;;4.60;1.08;;;18.60;99.90;;;;;;4340430;28;10000377;-67
2021/12/28 09:20:39;;;;;;;5.28;1.05;;;18.60;99.90;;;;;;5051961;28;20075;-67
2021/12/28 09:23:11;;;;;;;5.95;1.17;;;18.50;99.90;;;;;;5036960;28;20017;-65
2021/12/28 09:25:39;;;;;;;5.72;1.33;;;18.50;99.90;;;;;;5032198;28;20032;-68
2021/12/28 09:28:08;;;;;;;5.20;1.02;;;18.40;99.90;;;;;;5032493;28;20139;-68
2021/12/28 09:30:39;;;;;;;4.95;1.35;;;18.40;99.90;;;;;;5037388;28;20033;-68
2021/12/28 09:33:06;;;;;;;5.47;2.00;;;18.40;99.90;;;;;;5036207;28;20037;-67
2021/12/28 09:35:33;;;;;;;6.00;1.83;;;18.30;99.90;;;;;;5041160;28;20564;-65
2021/12/28 09:38:01;;;;;;;4.25;1.20;;;18.20;99.90;;;;;;5032037;28;20033;-72
2021/12/28 09:40:28;;;;;;;6.32;1.52;;;18.20;99.90;;;;;;5032967;28;20021;-66
2021/12/28 09:42:56;;;;;;;4.28;1.65;;;18.20;99.90;;;;;;5032956;28;20037;-72
2021/12/28 09:45:23;;;;;;;3.25;1.02;;;18.10;99.90;;;;;;5035613;28;20059;-68
2021/12/28 09:47:50;;;;;;;3.72;1.30;;;18.00;99.90;;;;;;5042267;28;20025;-72
2021/12/28 09:50:18;;;;;;;2.95;1.45;;;18.00;99.90;;;;;;5037519;28;20043;-68
2021/12/28 09:52:46;;;;;;;4.95;1.58;;;17.90;99.90;;;;;;5027162;28;20590;-67
2021/12/28 09:55:16;;;;;;;3.25;0.80;;;18.00;99.90;;;;;;5030948;28;20487;-73
2021/12/28 09:57:44;;;;;;;2.75;1.13;;;17.90;99.90;;;;;;5032954;28;20059;-67
2021/12/28 10:00:12;;;;;;;5.55;1.52;;;17.90;99.90;;;;;;5034642;28;20040;-68
2021/12/28 10:02:39;;;;;;;4.60;0.93;;;17.70;99.90;;;;;;5030160;28;20034;-66
2021/12/28 10:05:11;;;;;;;3.63;1.15;;;17.70;99.90;;;;;;5030555;28;20029;-71
2021/12/28 10:07:47;;;;;;;3.58;1.45;;;17.70;99.90;;;;;;5035143;28;20028;-71
2021/12/28 10:10:15;;;;;;;4.40;1.15;;;17.60;99.90;;;;;;5037930;28;20040;-67
2021/12/28 10:12:45;;;;;;;8.30;1.73;;;17.50;99.90;;;;;;5041307;28;20631;-67
2021/12/28 10:15:21;;;;;;;3.70;1.35;;;17.60;99.90;;;;;;5034901;28;20083;-71
2021/12/28 10:17:51;;;;;;;5.65;1.23;;;17.60;99.90;;;;;;5036474;28;20037;-72
2021/12/28 10:20:24;;;;;;;5.00;1.25;;;17.60;99.90;;;;;;5024783;28;20027;-65
2021/12/28 10:22:58;;;;;;;5.75;1.55;;;17.70;99.90;;;;;;5024761;28;20487;-71
2021/12/28 10:25:34;;;;;;;2.80;1.10;;;17.70;99.90;;;;;;5030056;28;20036;-71
2021/12/28 10:28:10;;;;;;;4.78;1.38;;;17.60;99.90;;;;;;5036297;28;20029;-65
2021/12/28 10:30:59;;;;;;;4.97;1.45;;;17.70;99.90;;;;;;5032438;28;20049;-66
2021/12/28 10:33:29;;;;;;;9.10;1.58;;;17.70;99.90;;;;;;5022732;28;20067;-68
2021/12/28 10:36:02;;;;;;;4.72;1.52;;;17.60;99.90;;;;;;5031581;28;20599;-68
2021/12/28 10:38:31;;;;;;;;;;;17.60;99.90;;;;;;5032785;28;20585;-67
2021/12/28 10:41:08;;;;;;;4.18;1.20;;;17.60;99.90;;;;;;5042292;28;19920;-74
2021/12/28 10:43:37;;;;;;;10.60;6.22;;;17.60;99.90;;;;;;5040255;28;20072;-74
2021/12/28 10:46:14;;;;;;;7.93;5.35;;;17.60;99.90;;;;;;5038143;28;20052;-65
2021/12/28 10:48:50;;;;;;;4.15;1.45;;;17.60;99.90;;;;;;5040165;28;20028;-73
2021/12/28 10:51:27;;;;;;;6.55;1.17;;;17.60;99.90;;;;;;5040912;28;20452;-73
2021/12/28 10:56:34;;;;;;;6.63;2.90;;;17.60;99.90;;;;;;5043830;28;20028;-74
2021/12/28 10:59:02;;;;;;;4.88;0.95;;;17.50;99.90;;;;;;5031758;28;20129;-64
2021/12/28 11:01:34;;;;;;;8.05;2.35;;;17.60;99.90;;;;;;5034351;28;20043;-70
2021/12/28 11:04:05;;;;;;;4.43;2.10;;;17.50;99.90;;;;;;5038066;28;20060;-69
2021/12/28 11:06:34;;;;;;;3.10;0.77;;;17.50;99.90;;;;;;5037828;28;20037;-70
2021/12/28 11:09:09;;;;;;;2.42;0.90;;;17.50;99.90;;;;;;5037298;28;20067;-68
2021/12/28 11:11:39;;;;;;;4.82;1.15;;;17.40;99.90;;;;;;5036647;28;20649;-66
2021/12/28 11:14:14;;;;;;;3.63;0.90;;;17.30;99.90;;;;;;5029688;28;20044;-71
2021/12/28 11:16:41;;;;;;;5.70;1.83;;;17.40;99.90;;;;;;5036906;28;20838;-66
2021/12/28 11:19:10;;;;;;;3.47;1.05;;;17.20;99.90;;;;;;5031690;28;20028;-69
2021/12/28 11:21:41;;;;;;;5.25;1.20;;;17.20;99.90;;;;;;5040872;28;20640;-70
2021/12/28 11:24:13;;;;;;;5.90;1.23;;;17.10;99.90;;;;;;5041371;28;20036;-68
2021/12/28 11:26:42;;;;;;;5.17;1.30;;;17.00;99.90;;;;;;5041265;28;20033;-69
2021/12/28 11:29:15;;;;;;;5.03;1.17;;;17.10;99.90;;;;;;5036094;28;20025;-68
2021/12/28 11:31:43;;;;;;;3.20;1.08;;;17.00;99.90;;;;;;5035695;28;20029;-71
2021/12/28 11:34:21;;;;;;;3.05;1.20;;;17.00;99.90;;;;;;5040057;28;20542;-70
2021/12/28 11:36:53;;;;;;;4.15;1.00;;;17.00;99.90;;;;;;5035853;28;20087;-71
2021/12/28 11:39:23;;;;;;;2.33;0.77;;;16.90;99.90;;;;;;5038953;28;20783;-68
2021/12/28 11:41:51;;;;;;;4.85;1.30;;;16.80;99.90;;;;;;5035226;28;20928;-65
2021/12/28 11:44:20;;;;;;;3.72;0.88;;;16.60;99.90;;;;;;5037986;28;20048;-72
2021/12/28 11:46:49;;;;;;;4.25;1.05;;;16.70;99.90;;;;;;5035320;28;20025;-66
2021/12/28 11:49:17;;;;;;;4.70;1.30;;;16.60;99.90;;;;;;5036334;28;20029;-65
2021/12/28 11:51:47;;;;;;;3.25;1.38;;;16.60;99.90;;;;;;5036452;28;20041;-66
2021/12/28 11:54:16;;;;;;;5.38;0.88;;;16.60;99.90;;;;;;5035528;28;20051;-66
2021/12/28 11:56:46;;;;;;;5.72;1.20;;;16.60;99.90;;;;;;5039537;28;20092;-66
2021/12/28 11:59:23;;;;;;;4.90;1.00;;;16.60;99.90;;;;;;5040371;28;20107;-67
2021/12/28 12:01:58;;;;;;;8.10;1.48;;;16.50;99.90;;;;;;5047704;28;20033;-70
2021/12/28 12:04:34;;;;;;;2.55;0.85;;;16.40;99.90;;;;;;5045472;28;20054;-67
2021/12/28 12:07:16;;;;;;;4.15;0.85;;;16.40;99.90;;;;;;5052425;28;20040;-68
2021/12/28 12:09:52;;;;;;;3.08;1.00;;;16.30;99.90;;;;;;5044666;28;20492;-72
2021/12/28 12:12:23;;;;;;;3.97;1.58;;;16.20;99.90;;;;;;5032599;28;20025;-66
2021/12/28 12:15:11;;;;;;;2.95;0.93;;;16.20;99.90;;;;;;5037478;28;20041;-70
2021/12/28 12:17:40;;;;;;;4.60;1.30;;;16.10;99.90;;;;;;5030562;28;20021;-67
2021/12/28 12:20:30;;;;;;;3.30;0.80;;;16.10;99.90;;;;;;5041787;28;20048;-71
2021/12/28 12:23:12;;;;;;;3.15;0.88;;;16.10;99.90;;;;;;5047205;28;20037;-66
2021/12/28 12:26:00;;;;;;;5.25;1.30;;;16.10;99.90;;;;;;5036680;28;20059;-70
2021/12/28 12:28:37;;;;;;;3.20;0.93;;;16.10;99.90;;;;;;5036761;28;20130;-66
2021/12/28 12:31:08;;;;;;;3.92;1.00;;;15.90;99.90;;;;;;5033866;28;20036;-71
2021/12/28 12:33:41;;;;;;;6.50;2.05;;;15.90;99.90;;;;;;5031792;28;20037;-71
2021/12/28 12:36:16;;;;;;;3.88;0.80;;;15.90;99.90;;;;;;5036847;28;20025;-66
2021/12/28 12:38:44;;;;;;;2.78;0.70;;;15.70;99.90;;;;;;5045615;28;20395;-67
2021/12/28 12:41:25;;;;;;;9.02;1.65;;;15.70;99.90;;;;;;5036053;28;20018;-70
2021/12/28 12:43:58;;;;;;;9.30;1.27;;;15.70;99.90;;;;;;5039639;28;20032;-67
2021/12/28 12:46:32;;;;;;;3.15;0.93;;;15.70;99.90;;;;;;5038190;28;20041;-72
2021/12/28 12:49:07;;;;;;;5.18;0.90;;;15.70;99.90;;;;;;5038514;28;20150;-67
2021/12/28 12:51:39;;;;;;;11.07;1.50;;;15.60;99.90;;;;;;5038867;28;20048;-72
2021/12/28 12:54:16;;;;;;;3.58;0.82;;;15.50;99.90;;;;;;5035607;28;20090;-69
2021/12/28 12:56:51;;;;;;;3.92;1.05;;;15.50;99.90;;;;;;5030503;28;20034;-65
2021/12/28 12:59:27;;;;;;;2.92;1.08;;;15.50;99.90;;;;;;5038659;28;20087;-70
2021/12/28 13:02:04;;;;;;;6.93;1.00;;;15.40;99.90;;;;;;5032251;28;20056;-65